Terminal Aerodrome Forecast
Issued by NWS

Home | Current Version | Previous Version | Text Only | Print | Product List | Glossary On
Versions: 1 2 3 4 5 6 7 8 9 10 11 12 13 14 15 16 17
000
FTUS46 KSEW 051124
TAFHQM
TAF
KHQM 051124Z 0512/0612 27010KT P6SM SCT200
      TEMPO 0514/0517 BKN015 BKN200
     FM051800 25012KT P6SM SCT020 SCT080
     FM052100 24015G22KT P6SM BKN025 BKN080
     FM060400 26007KT P6SM BKN020=

USA.gov is the U.S. government's official web portal to all federal, state and local government web resources and services.